Time;durP1;ratioP1;P1;durP2;ratioP2;P2;SDS_P1;SDS_P2;PMS_P1;PMS_P2;Temp;Humidity;BMP_temperature;BMP_pressure;BME280_temperature;BME280_humidity;BME280_pressure;Samples;Min_cycle;Max_cycle;Signal;HPM_P1;HPM_P2
2021/12/21 00:00:50;;;;;;;11.02;3.22;;;-2.60;99.90;;;;;;5054960;28;20136;-81
2021/12/21 00:03:16;;;;;;;8.75;2.42;;;-2.60;99.90;;;;;;5055288;28;20029;-82
2021/12/21 00:05:42;;;;;;;10.13;2.97;;;-2.60;99.90;;;;;;5054956;28;20503;-81
2021/12/21 00:08:11;;;;;;;9.85;3.35;;;-2.60;99.90;;;;;;5071201;28;20029;-82
2021/12/21 00:10:37;;;;;;;7.20;2.53;;;-2.60;99.90;;;;;;5054594;28;20028;-82
2021/12/21 00:13:08;;;;;;;10.57;3.63;;;-2.70;99.90;;;;;;5054474;28;20048;-82
2021/12/21 00:26:12;;;;;;;12.63;3.47;;;-3.00;99.90;;;;;;5070825;28;20465;-82
2021/12/21 00:29:01;;;;;;;10.57;3.25;;;-2.90;99.90;;;;;;5053938;28;20028;-82
2021/12/21 00:31:29;;;;;;;8.20;3.30;;;-2.90;99.90;;;;;;4990213;28;20066;-82
2021/12/21 00:33:55;;;;;;;13.07;3.05;;;-2.70;99.90;;;;;;4990566;28;20042;-82
2021/12/21 00:36:23;;;;;;;8.70;2.90;;;-2.70;99.90;;;;;;4990264;28;20066;-82
2021/12/21 00:38:50;;;;;;;9.25;2.92;;;-2.80;99.90;;;;;;4990104;28;20062;-82
2021/12/21 00:41:17;;;;;;;12.70;3.67;;;-2.90;99.90;;;;;;4990158;28;20027;-82
2021/12/21 00:43:42;;;;;;;8.85;3.20;;;-3.00;99.90;;;;;;4974232;28;20046;-82
2021/12/21 00:46:10;;;;;;;10.57;3.17;;;-3.00;99.90;;;;;;4990238;28;20121;-82
2021/12/21 00:48:36;;;;;;;11.07;3.10;;;-2.80;99.90;;;;;;4989896;28;20095;-82
2021/12/21 00:51:06;;;;;;;7.57;2.83;;;-2.90;99.90;;;;;;4973871;28;20129;-82
2021/12/21 00:53:35;;;;;;;9.38;2.78;;;-3.00;99.90;;;;;;4990299;28;20034;-82
2021/12/21 00:56:01;;;;;;;13.52;3.20;;;-2.90;99.90;;;;;;4973647;28;20106;-82
2021/12/21 00:58:27;;;;;;;6.95;3.03;;;-2.80;99.90;;;;;;4973609;28;20093;-82
2021/12/21 01:00:52;;;;;;;8.00;3.03;;;-3.00;99.90;;;;;;4973699;28;20494;-82
2021/12/21 01:03:19;;;;;;;8.98;3.08;;;-3.00;99.90;;;;;;4973878;28;20030;-82
2021/12/21 01:08:16;;;;;;;9.32;2.97;;;-3.10;99.90;;;;;;5032517;28;20047;-83
2021/12/21 01:13:37;;;;;;;10.85;3.42;;;-3.10;99.90;;;;;;5069891;28;20036;-83
2021/12/21 01:16:20;;;;;;;9.43;2.85;;;-3.00;99.90;;;;;;5053339;28;20115;-82
2021/12/21 01:19:02;;;;;;;12.82;2.78;;;-3.00;99.90;;;;;;5053164;28;20035;-82
2021/12/21 01:21:32;;;;;;;7.00;2.60;;;-3.20;99.90;;;;;;5053068;28;20515;-82
2021/12/21 01:29:04;;;;;;;10.68;3.10;;;-3.30;99.90;;;;;;5069400;28;20036;-82
2021/12/21 01:32:18;;;;;;;7.15;2.53;;;-3.20;99.90;;;;;;4987328;28;20525;-82
2021/12/21 01:34:58;;;;;;;9.52;3.00;;;-3.20;99.90;;;;;;4989064;28;20039;-81
2021/12/21 01:37:34;;;;;;;6.82;2.22;;;-3.20;99.90;;;;;;4971524;28;20062;-82
2021/12/21 01:40:26;;;;;;;7.68;2.63;;;-3.20;99.90;;;;;;4968030;29;20063;-82
2021/12/21 01:50:53;;;;;;;9.57;2.20;;;-3.40;99.90;;;;;;4984204;28;20067;-82
2021/12/21 01:53:19;;;;;;;8.68;2.33;;;-3.30;99.90;;;;;;4987130;28;20119;-83
2021/12/21 01:55:45;;;;;;;9.88;2.80;;;-3.40;99.90;;;;;;5003005;28;20058;-81
2021/12/21 01:58:11;;;;;;;8.50;2.67;;;-3.50;99.90;;;;;;5003004;28;20038;-81
2021/12/21 02:00:37;;;;;;;5.15;2.10;;;-3.50;99.90;;;;;;4985912;28;20043;-82
2021/12/21 02:03:03;;;;;;;8.00;2.22;;;-3.40;99.90;;;;;;5003062;28;20035;-82
2021/12/21 02:05:29;;;;;;;12.40;3.15;;;-3.40;99.90;;;;;;5003241;28;20041;-82
2021/12/21 02:07:55;;;;;;;7.45;2.30;;;-3.40;99.90;;;;;;4987043;28;20080;-81
2021/12/21 02:10:21;;;;;;;8.32;2.95;;;-3.40;99.90;;;;;;5002951;28;20431;-81
2021/12/21 02:12:46;;;;;;;8.45;2.63;;;-3.40;99.90;;;;;;4986676;28;20099;-81
2021/12/21 02:15:12;;;;;;;11.40;2.35;;;-3.40;99.90;;;;;;5002862;28;20033;-81
2021/12/21 02:18:07;;;;;;;11.40;2.88;;;-3.40;99.90;;;;;;4986586;28;20035;-82
2021/12/21 02:27:59;;;;;;;6.88;2.35;;;-3.40;99.90;;;;;;4986177;28;20459;-82
2021/12/21 02:30:26;;;;;;;7.00;2.38;;;-3.50;99.90;;;;;;5002124;28;20046;-83
2021/12/21 02:32:53;;;;;;;11.07;2.90;;;-3.40;99.90;;;;;;5002657;28;20047;-82
2021/12/21 02:35:19;;;;;;;9.05;2.60;;;-3.50;99.90;;;;;;4986199;28;20069;-82
2021/12/21 02:37:45;;;;;;;6.65;2.53;;;-3.70;99.90;;;;;;5002286;28;20041;-82
2021/12/21 02:40:11;;;;;;;7.15;2.20;;;-3.80;99.90;;;;;;4969917;28;20042;-82
2021/12/21 02:42:37;;;;;;;8.10;2.70;;;-3.60;99.90;;;;;;4953705;28;20038;-82
2021/12/21 02:45:05;;;;;;;5.57;2.22;;;-3.60;99.90;;;;;;4969895;28;20074;-82
2021/12/21 02:47:30;;;;;;;7.45;2.80;;;-3.60;99.90;;;;;;4953905;28;20026;-81
2021/12/21 02:49:56;;;;;;;7.70;2.80;;;-3.60;99.90;;;;;;4969904;28;20117;-82
2021/12/21 02:52:22;;;;;;;6.30;2.30;;;-3.70;99.90;;;;;;4969819;28;20118;-82
2021/12/21 02:54:48;;;;;;;6.38;2.38;;;-3.90;99.90;;;;;;4969857;28;20066;-82
2021/12/21 02:57:13;;;;;;;5.13;2.33;;;-4.00;99.90;;;;;;4969453;28;20022;-82
2021/12/21 02:59:39;;;;;;;6.80;2.70;;;-3.80;99.90;;;;;;4969537;28;20043;-82
2021/12/21 03:02:05;;;;;;;6.35;2.55;;;-3.70;99.90;;;;;;4969884;28;20022;-82
2021/12/21 03:04:30;;;;;;;8.70;2.63;;;-3.80;99.90;;;;;;4969742;28;20125;-83
2021/12/21 03:11:55;;;;;;;12.23;3.13;;;-4.00;99.90;;;;;;4985512;28;20443;-82
2021/12/21 03:14:21;;;;;;;8.80;1.63;;;-4.00;99.90;;;;;;4953534;28;20039;-83
2021/12/21 03:16:47;;;;;;;7.15;2.55;;;-4.10;99.90;;;;;;4969531;28;20023;-82
2021/12/21 03:19:13;;;;;;;7.28;2.60;;;-4.00;99.90;;;;;;4969209;28;20042;-82
2021/12/21 03:21:39;;;;;;;9.55;2.00;;;-3.90;99.90;;;;;;4970837;28;20100;-82
2021/12/21 03:24:06;;;;;;;5.60;2.10;;;-3.80;99.90;;;;;;4969546;28;20054;-82
2021/12/21 03:26:32;;;;;;;6.57;1.95;;;-3.80;99.90;;;;;;4953335;28;20098;-82
2021/12/21 03:28:57;;;;;;;4.80;1.70;;;-3.90;99.90;;;;;;4985209;28;20034;-82
2021/12/21 03:31:23;;;;;;;5.50;2.08;;;-4.00;99.90;;;;;;4985335;28;20078;-82
2021/12/21 03:33:49;;;;;;;4.32;2.53;;;-3.80;99.90;;;;;;4969250;28;20031;-82
2021/12/21 03:36:16;;;;;;;5.22;2.22;;;-3.80;99.90;;;;;;4953543;28;20031;-82
2021/12/21 03:38:48;;;;;;;4.40;1.85;;;-3.80;99.90;;;;;;4965765;29;20102;-82
2021/12/21 03:41:16;;;;;;;4.72;2.20;;;-3.80;99.90;;;;;;4950228;29;20130;-82
2021/12/21 03:43:42;;;;;;;6.28;1.55;;;-3.90;99.90;;;;;;4965993;28;20103;-82
2021/12/21 03:46:13;;;;;;;5.28;2.08;;;-3.90;99.90;;;;;;4950226;29;20039;-82
2021/12/21 03:48:44;;;;;;;7.20;2.42;;;-3.90;99.90;;;;;;4965812;29;20066;-82
2021/12/21 03:51:10;;;;;;;6.60;2.15;;;-3.90;99.90;;;;;;4934221;29;20456;-82
2021/12/21 03:53:36;;;;;;;5.03;1.80;;;-3.90;99.90;;;;;;4965969;29;20057;-82
2021/12/21 03:58:41;;;;;;;6.10;1.92;;;-4.00;99.90;;;;;;4949515;29;20031;-82
2021/12/21 04:01:06;;;;;;;4.70;2.00;;;-3.90;99.90;;;;;;4949950;29;20039;-81
2021/12/21 04:03:32;;;;;;;6.88;1.90;;;-4.00;99.90;;;;;;4950067;29;20033;-82
2021/12/21 04:05:57;;;;;;;4.18;1.95;;;-3.90;99.90;;;;;;4950061;29;20039;-81
2021/12/21 04:08:23;;;;;;;6.18;1.90;;;-4.00;99.90;;;;;;4949866;29;20139;-83
2021/12/21 04:10:48;;;;;;;6.65;2.17;;;-4.00;99.90;;;;;;4949793;29;20031;-82
2021/12/21 04:13:14;;;;;;;4.38;2.28;;;-4.10;99.90;;;;;;4949811;29;20042;-83
2021/12/21 04:15:43;;;;;;;5.10;2.25;;;-4.20;99.90;;;;;;4949975;29;20031;-83
2021/12/21 04:18:13;;;;;;;5.25;2.22;;;-4.10;99.90;;;;;;4965731;29;20039;-83
2021/12/21 04:20:40;;;;;;;4.78;1.73;;;-4.30;99.90;;;;;;4934019;29;20047;-84
2021/12/21 04:23:06;;;;;;;5.45;2.15;;;-4.40;99.90;;;;;;4965717;29;20039;-83
2021/12/21 04:25:35;;;;;;;6.85;2.20;;;-4.20;99.90;;;;;;4952419;29;20031;-84
2021/12/21 04:28:00;;;;;;;6.68;2.15;;;-4.20;99.90;;;;;;4969339;28;20039;-83
2021/12/21 04:30:27;;;;;;;5.32;2.20;;;-4.20;99.90;;;;;;4968699;28;20059;-83
2021/12/21 04:32:53;;;;;;;6.43;2.35;;;-4.20;99.90;;;;;;4937070;29;20035;-83
2021/12/21 04:35:20;;;;;;;7.82;2.17;;;-4.10;99.90;;;;;;4968939;28;20037;-83
2021/12/21 04:38:12;;;;;;;5.80;2.33;;;-4.20;99.90;;;;;;4969985;28;20038;-82
2021/12/21 04:40:44;;;;;;;4.88;1.58;;;-4.20;99.90;;;;;;4989038;28;20052;-82
2021/12/21 04:43:09;;;;;;;5.57;2.33;;;-4.30;99.90;;;;;;4972201;28;20038;-83
2021/12/21 04:45:35;;;;;;;5.57;1.77;;;-4.30;99.90;;;;;;4972015;28;20031;-82
2021/12/21 04:48:01;;;;;;;5.28;2.17;;;-4.50;99.90;;;;;;4972022;28;20034;-82
2021/12/21 04:50:26;;;;;;;4.60;1.52;;;-4.50;99.90;;;;;;4972070;28;20031;-82
2021/12/21 04:52:52;;;;;;;5.30;2.00;;;-4.20;99.90;;;;;;4971921;28;20035;-82
2021/12/21 04:55:18;;;;;;;6.68;1.63;;;-4.20;99.90;;;;;;4955901;28;20031;-82
2021/12/21 04:57:43;;;;;;;6.05;1.90;;;-4.30;99.90;;;;;;4971711;28;20034;-82
2021/12/21 05:00:13;;;;;;;8.93;2.13;;;-4.40;99.90;;;;;;4971449;28;20456;-82
2021/12/21 05:02:39;;;;;;;8.25;2.88;;;-4.30;99.90;;;;;;4955773;28;20122;-82
2021/12/21 05:05:05;;;;;;;7.55;2.40;;;-4.30;99.90;;;;;;4987890;28;20125;-81
2021/12/21 05:07:34;;;;;;;6.30;1.90;;;-4.40;99.90;;;;;;4955522;28;20058;-82
2021/12/21 05:10:01;;;;;;;7.45;2.83;;;-4.20;99.90;;;;;;4971585;28;20035;-82
2021/12/21 05:12:28;;;;;;;7.05;2.00;;;-4.30;99.90;;;;;;4955716;28;20062;-82
2021/12/21 05:14:55;;;;;;;8.57;2.53;;;-4.30;99.90;;;;;;4955392;28;20098;-82
2021/12/21 05:17:21;;;;;;;4.97;2.15;;;-4.40;99.90;;;;;;4971531;28;20030;-83
2021/12/21 05:19:46;;;;;;;7.97;2.53;;;-4.30;99.90;;;;;;4955138;28;20071;-81
2021/12/21 05:22:12;;;;;;;7.65;2.55;;;-4.30;99.90;;;;;;4965865;29;20031;-81
2021/12/21 05:24:38;;;;;;;8.00;2.33;;;-4.40;99.90;;;;;;4967684;29;20031;-80
2021/12/21 05:27:05;;;;;;;7.13;2.88;;;-4.30;99.90;;;;;;4967769;29;20031;-81
2021/12/21 05:29:31;;;;;;;6.53;2.80;;;-4.40;99.90;;;;;;4983677;28;20134;-81
2021/12/21 05:31:59;;;;;;;8.45;2.50;;;-4.30;99.90;;;;;;4967849;29;20042;-81
2021/12/21 05:34:25;;;;;;;8.55;2.60;;;-4.20;99.90;;;;;;4981196;28;20035;-81
2021/12/21 05:36:51;;;;;;;7.72;2.72;;;-4.30;99.90;;;;;;4967762;28;20058;-80
2021/12/21 05:39:21;;;;;;;7.18;3.60;;;-4.30;99.90;;;;;;4979857;28;20098;-80
2021/12/21 05:41:50;;;;;;;6.72;2.53;;;-4.40;99.90;;;;;;4987033;28;20041;-81
2021/12/21 05:44:21;;;;;;;9.80;2.58;;;-4.20;99.90;;;;;;5003190;28;20059;-81
2021/12/21 05:46:52;;;;;;;9.07;2.72;;;-4.20;99.90;;;;;;4986676;28;20066;-81
2021/12/21 05:49:19;;;;;;;7.15;2.45;;;-4.40;99.90;;;;;;4986575;28;20030;-80
2021/12/21 05:51:45;;;;;;;6.32;2.80;;;-4.50;99.90;;;;;;5002888;28;20054;-80
2021/12/21 05:54:15;;;;;;;6.47;2.40;;;-4.30;99.90;;;;;;5003014;28;20031;-80
2021/12/21 05:56:41;;;;;;;7.03;2.78;;;-4.50;99.90;;;;;;4967574;28;20038;-81
2021/12/21 05:59:07;;;;;;;8.10;2.65;;;-4.50;99.90;;;;;;4986417;28;20078;-80
2021/12/21 06:01:34;;;;;;;7.15;3.60;;;-4.60;99.90;;;;;;4986695;28;20046;-81
2021/12/21 06:04:00;;;;;;;9.05;3.63;;;-4.70;99.90;;;;;;5002805;28;20238;-80
2021/12/21 06:06:27;;;;;;;8.52;2.63;;;-4.50;99.90;;;;;;5002435;28;20035;-80
2021/12/21 06:08:55;;;;;;;9.82;4.15;;;-4.70;99.90;;;;;;4986461;28;20105;-80
2021/12/21 06:11:23;;;;;;;6.65;2.45;;;-4.40;99.90;;;;;;4970208;28;20045;-80
2021/12/21 06:16:28;;;;;;;10.75;2.88;;;-4.70;99.90;;;;;;5002194;28;20039;-80
2021/12/21 06:26:56;;;;;;;11.80;3.33;;;-4.50;99.90;;;;;;4987312;28;20034;-80
2021/12/21 06:29:22;;;;;;;10.45;3.35;;;-4.30;99.90;;;;;;4969291;28;20047;-80
2021/12/21 06:31:48;;;;;;;10.30;3.28;;;-4.40;99.90;;;;;;4985326;28;20062;-80
2021/12/21 06:34:14;;;;;;;7.55;3.33;;;-4.40;99.90;;;;;;4953546;28;20035;-80
2021/12/21 06:36:40;;;;;;;10.10;3.13;;;-4.70;99.90;;;;;;4969745;28;20392;-80
2021/12/21 06:39:06;;;;;;;6.85;3.47;;;-4.60;99.90;;;;;;4969479;28;20046;-80
2021/12/21 06:41:35;;;;;;;11.45;3.72;;;-4.70;99.90;;;;;;4988352;28;20035;-80
2021/12/21 06:44:02;;;;;;;7.85;3.33;;;-4.70;99.90;;;;;;4950673;29;20067;-80
2021/12/21 06:46:50;;;;;;;9.43;3.70;;;-4.70;99.90;;;;;;4966454;28;20055;-80
2021/12/21 06:52:01;;;;;;;10.95;3.55;;;-4.80;99.90;;;;;;4950370;29;20031;-80
2021/12/21 06:54:27;;;;;;;12.10;3.80;;;-4.90;99.90;;;;;;4950320;29;20034;-80
2021/12/21 06:56:53;;;;;;;8.13;3.80;;;-4.80;99.90;;;;;;4950279;29;20039;-80
2021/12/21 06:59:19;;;;;;;10.30;4.10;;;-4.70;99.90;;;;;;4967352;29;20070;-80
2021/12/21 07:01:48;;;;;;;8.30;3.67;;;-4.70;99.90;;;;;;4966234;29;20024;-80
2021/12/21 07:04:14;;;;;;;6.70;3.30;;;-4.80;99.90;;;;;;4950321;29;20046;-79
2021/12/21 07:06:42;;;;;;;10.95;3.90;;;-4.60;99.90;;;;;;4950072;29;20031;-79
2021/12/21 07:09:18;;;;;;;11.32;3.33;;;-4.60;99.90;;;;;;4949978;29;20110;-80
2021/12/21 07:11:46;;;;;;;7.87;3.80;;;-4.80;99.90;;;;;;4950145;29;20081;-79
2021/12/21 07:19:43;;;;;;;11.20;2.97;;;-4.80;99.90;;;;;;4982215;28;20407;-79
2021/12/21 07:22:09;;;;;;;10.45;3.55;;;-4.80;99.90;;;;;;4966020;29;20551;-80
2021/12/21 07:24:35;;;;;;;10.50;2.58;;;-4.80;99.90;;;;;;4966012;29;20039;-79
2021/12/21 07:27:01;;;;;;;8.25;3.13;;;-4.90;99.90;;;;;;4950008;29;20023;-79
2021/12/21 07:29:26;;;;;;;10.20;3.60;;;-5.00;99.90;;;;;;4965549;29;20498;-80
2021/12/21 07:31:52;;;;;;;9.02;3.25;;;-4.90;99.90;;;;;;4949690;29;20039;-79
2021/12/21 07:34:18;;;;;;;7.80;3.75;;;-4.90;99.90;;;;;;4965781;29;20034;-79
2021/12/21 07:36:44;;;;;;;8.82;2.95;;;-4.90;99.90;;;;;;4949652;29;20054;-80
2021/12/21 07:39:13;;;;;;;6.55;2.85;;;-5.10;99.90;;;;;;4961566;28;20035;-79
2021/12/21 07:41:39;;;;;;;7.90;2.92;;;-5.20;99.90;;;;;;4985035;28;20035;-80
2021/12/21 07:44:06;;;;;;;8.27;2.83;;;-5.00;99.90;;;;;;5001338;28;20031;-79
2021/12/21 07:46:32;;;;;;;9.87;3.50;;;-4.70;99.90;;;;;;5001036;28;20046;-79
2021/12/21 07:48:58;;;;;;;7.53;2.88;;;-4.60;99.90;;;;;;4984864;28;20117;-80
2021/12/21 07:51:24;;;;;;;8.85;3.05;;;-4.80;99.90;;;;;;4984559;28;20085;-79
2021/12/21 07:53:50;;;;;;;10.38;2.70;;;-4.60;99.90;;;;;;5000423;28;20046;-79
2021/12/21 07:56:16;;;;;;;7.70;3.22;;;-4.40;99.90;;;;;;4984320;28;20031;-80
2021/12/21 07:58:43;;;;;;;11.70;4.57;;;-4.40;99.90;;;;;;4984160;28;20041;-80
2021/12/21 08:01:09;;;;;;;10.48;4.10;;;-4.40;99.90;;;;;;5004040;28;20035;-79
2021/12/21 08:03:35;;;;;;;10.00;4.07;;;-4.40;99.90;;;;;;4987947;28;20094;-79
2021/12/21 08:06:04;;;;;;;7.40;3.85;;;-4.50;99.90;;;;;;5004123;28;20023;-79
2021/12/21 08:08:31;;;;;;;8.07;3.60;;;-4.40;99.90;;;;;;5004020;28;20050;-79
2021/12/21 08:11:14;;;;;;;8.70;3.77;;;-4.40;99.90;;;;;;4987884;28;20031;-79
2021/12/21 08:13:43;;;;;;;7.43;3.20;;;-4.50;99.90;;;;;;5003800;28;20054;-79
2021/12/21 08:16:09;;;;;;;10.10;3.77;;;-4.60;99.90;;;;;;4987941;28;20125;-79
2021/12/21 08:18:35;;;;;;;7.85;3.58;;;-4.40;99.90;;;;;;5003866;28;20062;-79
2021/12/21 08:21:01;;;;;;;8.80;3.13;;;-4.30;99.90;;;;;;4987679;28;20039;-80
2021/12/21 08:23:27;;;;;;;9.43;3.33;;;-4.30;99.90;;;;;;4987476;28;20037;-79
2021/12/21 08:25:54;;;;;;;9.27;3.60;;;-4.40;99.90;;;;;;5003717;28;20042;-79
2021/12/21 08:28:20;;;;;;;9.87;4.20;;;-4.20;99.90;;;;;;4987286;28;20158;-79
2021/12/21 08:30:46;;;;;;;10.02;3.38;;;-4.20;99.90;;;;;;5001474;28;20119;-80
2021/12/21 08:33:11;;;;;;;6.95;3.70;;;-4.20;99.90;;;;;;4976653;28;20070;-78
2021/12/21 08:35:39;;;;;;;9.27;4.63;;;-4.10;99.90;;;;;;4977183;28;20054;-80
2021/12/21 08:38:07;;;;;;;9.23;4.07;;;-4.10;99.90;;;;;;4967813;28;20030;-79
2021/12/21 08:40:39;;;;;;;7.03;3.13;;;-4.00;99.90;;;;;;4980761;28;20054;-80
2021/12/21 08:43:11;;;;;;;7.10;3.60;;;-4.00;99.90;;;;;;4968591;28;20181;-79
2021/12/21 08:45:39;;;;;;;6.10;3.47;;;-3.90;99.90;;;;;;4969975;28;20066;-79
2021/12/21 08:48:05;;;;;;;9.85;4.63;;;-3.90;99.90;;;;;;4968637;28;20027;-80
2021/12/21 08:50:31;;;;;;;10.95;5.10;;;-3.90;99.90;;;;;;4977950;28;20146;-80
2021/12/21 08:52:58;;;;;;;8.05;4.43;;;-3.90;99.90;;;;;;4969374;28;20061;-79
2021/12/21 08:55:24;;;;;;;8.98;4.50;;;-3.80;99.90;;;;;;4968272;28;20039;-79
2021/12/21 08:57:50;;;;;;;7.22;3.10;;;-3.70;99.90;;;;;;4979540;28;20031;-79
2021/12/21 09:00:16;;;;;;;7.93;4.47;;;-3.70;99.90;;;;;;4953240;28;20060;-79
2021/12/21 09:02:42;;;;;;;7.80;4.07;;;-3.60;99.90;;;;;;4966477;28;20134;-79
2021/12/21 09:05:16;;;;;;;7.13;3.50;;;-3.50;99.90;;;;;;4996394;28;20039;-79
2021/12/21 09:07:46;;;;;;;9.77;4.13;;;-3.50;99.90;;;;;;4967713;28;20109;-79
2021/12/21 09:10:14;;;;;;;8.77;4.30;;;-3.40;99.90;;;;;;4952623;28;20102;-79
2021/12/21 09:12:40;;;;;;;8.20;4.55;;;-3.40;99.90;;;;;;4969288;28;20041;-79
2021/12/21 09:15:07;;;;;;;5.85;2.63;;;-3.30;99.90;;;;;;4953642;28;20035;-79
2021/12/21 09:17:33;;;;;;;8.70;4.70;;;-3.30;99.90;;;;;;4977877;28;20042;-81
2021/12/21 09:19:58;;;;;;;9.45;5.22;;;-3.20;99.90;;;;;;4968890;28;20039;-80
2021/12/21 09:22:24;;;;;;;9.80;5.50;;;-3.10;99.90;;;;;;4975569;28;20475;-81
2021/12/21 09:24:51;;;;;;;7.78;4.00;;;-3.10;99.90;;;;;;4984634;28;20030;-80
2021/12/21 09:27:17;;;;;;;9.40;4.70;;;-3.10;99.90;;;;;;4953501;28;20031;-80
2021/12/21 09:29:44;;;;;;;9.55;4.35;;;-3.00;99.90;;;;;;4954032;28;20066;-80
2021/12/21 09:32:13;;;;;;;8.93;4.18;;;-3.00;99.90;;;;;;4961347;28;20045;-81
2021/12/21 09:34:40;;;;;;;11.82;4.38;;;-3.00;99.90;;;;;;4947588;28;20087;-81
2021/12/21 09:37:08;;;;;;;11.45;5.97;;;-2.70;99.90;;;;;;4953636;28;20066;-80
2021/12/21 09:39:33;;;;;;;10.23;5.43;;;-2.70;99.90;;;;;;4952313;29;20047;-81
2021/12/21 09:41:59;;;;;;;11.30;5.45;;;-2.80;99.90;;;;;;4961234;28;20027;-82
2021/12/21 09:44:25;;;;;;;9.95;5.32;;;-2.70;99.90;;;;;;4968532;28;20035;-83
2021/12/21 09:46:51;;;;;;;11.85;6.22;;;-2.60;99.90;;;;;;4956381;28;20031;-82
2021/12/21 09:49:17;;;;;;;10.90;5.40;;;-2.50;99.90;;;;;;4957409;28;20035;-83
2021/12/21 09:51:43;;;;;;;9.40;5.40;;;-2.50;99.90;;;;;;4949054;28;20055;-83
2021/12/21 09:54:09;;;;;;;12.38;5.57;;;-2.30;99.90;;;;;;4965994;28;20035;-81
2021/12/21 09:56:35;;;;;;;11.93;5.50;;;-2.30;99.90;;;;;;4952534;29;20083;-81
2021/12/21 09:59:01;;;;;;;12.35;5.43;;;-2.10;99.90;;;;;;4936437;29;20098;-80
2021/12/21 10:01:27;;;;;;;10.73;5.90;;;-2.10;99.90;;;;;;4949990;29;20118;-81
2021/12/21 10:03:53;;;;;;;11.40;6.20;;;-1.90;99.90;;;;;;4956616;29;20027;-81
2021/12/21 10:06:18;;;;;;;12.48;5.72;;;-1.80;99.90;;;;;;4965245;28;20045;-81
2021/12/21 10:08:44;;;;;;;13.65;6.00;;;-1.70;99.90;;;;;;4951790;28;20035;-81
2021/12/21 10:11:22;;;;;;;13.07;6.22;;;-1.60;99.90;;;;;;4933682;28;20035;-81
2021/12/21 10:13:48;;;;;;;12.27;5.97;;;-1.60;99.90;;;;;;4953042;29;20031;-81
2021/12/21 10:16:20;;;;;;;11.60;5.80;;;-1.50;99.90;;;;;;4963643;28;20039;-83
2021/12/21 10:18:45;;;;;;;17.98;6.57;;;-1.40;99.90;;;;;;4964950;28;20039;-82
2021/12/21 10:21:14;;;;;;;12.95;6.70;;;-1.40;99.90;;;;;;4965064;28;20035;-82
2021/12/21 10:23:48;;;;;;;12.20;5.82;;;-1.20;99.90;;;;;;4948429;28;20027;-82
2021/12/21 10:26:34;;;;;;;11.75;5.90;;;-1.10;99.90;;;;;;4963355;28;20044;-82
2021/12/21 10:29:05;;;;;;;15.27;8.30;;;-0.90;99.90;;;;;;4941997;29;20091;-83
2021/12/21 10:31:30;;;;;;;;;;;-0.90;99.90;;;;;;4957557;28;20051;-81
2021/12/21 10:33:59;;;;;;;15.43;8.48;;;-0.90;99.90;;;;;;4966425;28;19918;-81
2021/12/21 10:36:26;;;;;;;17.25;9.77;;;-0.70;99.90;;;;;;4952509;28;20122;-81
2021/12/21 10:39:03;;;;;;;19.73;11.05;;;-0.60;99.90;;;;;;4951747;28;20055;-81
2021/12/21 10:41:34;;;;;;;11.95;8.23;;;-0.60;99.90;;;;;;4952946;28;20066;-82
2021/12/21 10:44:07;;;;;;;18.95;9.35;;;-0.60;99.90;;;;;;4949294;29;20031;-82
2021/12/21 10:46:35;;;;;;;18.38;9.25;;;-0.50;99.90;;;;;;4952642;29;20143;-82
2021/12/21 10:49:28;;;;;;;18.73;11.07;;;-0.50;99.90;;;;;;4956530;29;20036;-82
2021/12/21 10:52:01;;;;;;;20.40;11.40;;;-0.50;99.90;;;;;;4955168;28;20444;-82
2021/12/21 10:54:30;;;;;;;13.32;8.40;;;-0.50;99.90;;;;;;4931974;28;20039;-82
2021/12/21 10:57:05;;;;;;;16.73;10.23;;;-0.40;99.90;;;;;;4946080;29;20046;-83
2021/12/21 10:59:36;;;;;;;18.92;11.43;;;-0.50;99.90;;;;;;4949450;28;20043;-84
2021/12/21 11:02:13;;;;;;;21.58;9.82;;;-0.40;99.90;;;;;;4948700;28;20035;-83
2021/12/21 11:04:41;;;;;;;20.20;11.30;;;-0.30;99.90;;;;;;4966388;28;20035;-83
2021/12/21 11:07:21;;;;;;;18.10;10.93;;;-0.30;99.90;;;;;;4949856;28;20043;-84
2021/12/21 11:10:12;;;;;;;12.13;7.22;;;-0.30;99.90;;;;;;4956981;28;20024;-84
2021/12/21 11:12:51;;;;;;;13.10;7.53;;;-0.20;99.90;;;;;;4955129;28;20035;-84
2021/12/21 11:15:20;;;;;;;13.57;8.23;;;-0.20;99.90;;;;;;4960531;28;20039;-84
2021/12/21 11:17:46;;;;;;;15.68;8.73;;;-0.20;99.90;;;;;;4947704;28;20066;-84
2021/12/21 11:20:14;;;;;;;18.20;10.48;;;-0.10;99.90;;;;;;4950119;29;20047;-84
2021/12/21 11:22:43;;;;;;;16.02;10.10;;;-0.10;99.90;;;;;;4946466;29;20044;-84
2021/12/21 11:25:10;;;;;;;24.52;12.00;;;-0.10;99.90;;;;;;4933572;29;20031;-84
2021/12/21 11:27:38;;;;;;;19.38;9.80;;;0.10;99.90;;;;;;4949484;29;20126;-84
2021/12/21 11:30:11;;;;;;;16.23;8.70;;;0.20;99.90;;;;;;4929908;29;20044;-85
2021/12/21 11:32:42;;;;;;;19.90;12.25;;;0.20;99.90;;;;;;4930355;29;20061;-85
2021/12/21 11:37:20;;;;;;;18.83;10.18;;;0.30;99.90;;;;;;4950556;29;20059;-86
2021/12/21 11:37:57;;;;;;;15.32;9.63;;;0.40;99.90;;;;;;4936549;29;20051;-86
2021/12/21 11:40:30;;;;;;;21.75;11.65;;;0.50;99.90;;;;;;4970099;29;20050;-86
2021/12/21 11:43:27;;;;;;;18.85;12.00;;;0.40;99.90;;;;;;4961931;29;20139;-86
2021/12/21 11:46:06;;;;;;;20.27;11.25;;;0.50;99.90;;;;;;4946443;29;20049;-86
2021/12/21 11:49:06;;;;;;;19.90;11.65;;;0.50;99.90;;;;;;4953164;29;20059;-86
2021/12/21 11:51:32;;;;;;;20.70;11.97;;;0.60;99.90;;;;;;4947076;29;20031;-87
2021/12/21 11:53:57;;;;;;;20.90;12.35;;;0.70;99.90;;;;;;4961084;29;20344;-86
2021/12/21 11:56:26;;;;;;;18.23;12.00;;;0.70;99.90;;;;;;4966151;29;20067;-87
2021/12/21 11:58:55;;;;;;;19.80;11.18;;;0.70;99.90;;;;;;4942602;29;20130;-87
2021/12/21 12:01:29;;;;;;;17.48;10.77;;;0.80;99.90;;;;;;4962387;29;20397;-85
2021/12/21 12:04:09;;;;;;;24.55;14.57;;;0.90;99.90;;;;;;4934100;29;20514;-87
2021/12/21 12:06:52;;;;;;;;;;;0.90;99.90;;;;;;4950353;29;20074;-87
2021/12/21 12:09:36;;;;;;;25.40;14.20;;;0.90;99.90;;;;;;4946070;29;19994;-88
2021/12/21 12:12:16;;;;;;;24.55;14.52;;;0.90;99.90;;;;;;4952207;29;20031;-88
2021/12/21 12:14:45;;;;;;;16.38;10.23;;;1.00;99.90;;;;;;4936851;29;20042;-89
2021/12/21 12:17:22;;;;;;;21.65;12.40;;;1.10;99.90;;;;;;4982259;28;20036;-88
2021/12/21 12:19:57;;;;;;;22.90;12.57;;;1.10;99.90;;;;;;4952932;29;20142;-88
2021/12/21 12:22:40;;;;;;;18.15;10.32;;;1.10;99.90;;;;;;4951265;29;20087;-91
2021/12/21 12:25:08;;;;;;;26.35;13.55;;;1.20;99.90;;;;;;4954734;28;20039;-89
2021/12/21 12:27:43;;;;;;;26.50;14.43;;;1.20;99.90;;;;;;4960249;29;20027;-90
2021/12/21 12:30:12;;;;;;;30.35;15.05;;;1.20;99.90;;;;;;4947980;28;20050;-91
2021/12/21 12:32:42;;;;;;;23.33;15.13;;;1.20;99.90;;;;;;4961549;28;20055;-90
2021/12/21 12:35:10;;;;;;;22.40;13.18;;;1.30;99.90;;;;;;4961296;28;20081;-91
2021/12/21 12:37:51;;;;;;;24.83;13.50;;;1.40;99.90;;;;;;4966186;28;20026;-90
2021/12/21 12:40:24;;;;;;;17.95;11.13;;;1.50;99.90;;;;;;4968774;28;20114;-92
2021/12/21 12:42:57;;;;;;;18.10;10.82;;;1.50;99.90;;;;;;4972748;28;20103;-92
2021/12/21 12:45:32;;;;;;;16.58;9.80;;;1.60;99.90;;;;;;5012957;28;20041;-92
2021/12/21 12:47:58;;;;;;;18.75;10.23;;;1.70;99.90;;;;;;4971142;28;20049;-92
2021/12/21 12:50:27;;;;;;;18.92;10.27;;;1.80;99.90;;;;;;5005028;28;20030;-92
2021/12/21 12:52:54;;;;;;;18.23;10.70;;;1.80;99.90;;;;;;5006959;28;20027;-94
2021/12/21 12:55:22;;;;;;;15.93;10.13;;;1.90;99.90;;;;;;5010470;28;20061;-95
2021/12/21 12:57:53;;;;;;;18.42;10.60;;;1.80;99.90;;;;;;5001732;28;20534;-91
2021/12/21 13:00:24;;;;;;;16.60;10.07;;;1.90;99.90;;;;;;4973370;28;20041;-92
2021/12/21 13:03:10;;;;;;;19.17;10.02;;;1.90;99.90;;;;;;5008220;28;20037;-94
2021/12/21 13:05:52;;;;;;;17.15;9.38;;;2.00;99.90;;;;;;5005862;28;20031;-95
2021/12/21 13:08:21;;;;;;;17.00;10.30;;;2.00;99.90;;;;;;4999626;28;20129;-94
2021/12/21 13:10:51;;;;;;;19.98;10.52;;;1.90;99.90;;;;;;5007326;28;20038;-95
2021/12/21 13:13:18;;;;;;;19.25;10.43;;;2.00;99.90;;;;;;5006989;28;20034;-96
2021/12/21 13:15:47;;;;;;;21.40;10.55;;;1.90;99.90;;;;;;4991197;28;20113;-96
2021/12/21 13:18:17;;;;;;;19.15;10.50;;;1.90;99.90;;;;;;5007047;28;20026;-93
2021/12/21 13:20:48;;;;;;;20.60;10.38;;;1.90;99.90;;;;;;4990874;28;20046;-94
2021/12/21 13:23:29;;;;;;;22.05;12.55;;;1.90;99.90;;;;;;5007099;28;20041;-95
2021/12/21 13:26:05;;;;;;;19.63;11.55;;;1.90;99.90;;;;;;5007154;28;20034;-94
2021/12/21 13:28:52;;;;;;;20.48;11.20;;;1.90;99.90;;;;;;5006633;28;20030;-94
2021/12/21 13:31:20;;;;;;;19.23;10.57;;;1.90;99.90;;;;;;4950618;29;20083;-94
2021/12/21 13:33:58;;;;;;;18.42;10.07;;;1.90;99.90;;;;;;4966973;29;20047;-95
2021/12/21 13:36:45;;;;;;;18.27;10.23;;;2.10;99.90;;;;;;4967134;29;20039;-93
2021/12/21 13:39:33;;;;;;;18.05;9.55;;;2.10;99.90;;;;;;4954461;29;20039;-94
2021/12/21 13:42:11;;;;;;;19.10;9.57;;;2.10;99.90;;;;;;4947518;29;20083;-94
2021/12/21 13:44:43;;;;;;;14.98;7.78;;;2.10;99.90;;;;;;4947682;29;20091;-94
2021/12/21 13:47:26;;;;;;;13.35;8.23;;;2.00;99.90;;;;;;4916023;29;20035;-93
2021/12/21 13:50:10;;;;;;;13.60;8.35;;;2.00;99.90;;;;;;4931764;29;20058;-92
2021/12/21 13:52:41;;;;;;;15.93;8.85;;;2.00;99.90;;;;;;4931606;29;20035;-92
2021/12/21 13:55:21;;;;;;;;;;;2.00;99.90;;;;;;4931988;29;20067;-91
2021/12/21 13:57:48;;;;;;;14.73;7.35;;;1.90;99.90;;;;;;4930476;29;19915;-92